Time;durP1;ratioP1;P1;durP2;ratioP2;P2;SDS_P1;SDS_P2;PMS_P1;PMS_P2;Temp;Humidity;BMP_temperature;BMP_pressure;BME280_temperature;BME280_humidity;BME280_pressure;Samples;Min_cycle;Max_cycle;Signal;HPM_P1;HPM_P2
2022/03/21 00:01:23;;;;;;;10.65;8.38;;;4.10;39.80;;;;;;5039511;28;20028;-75
2022/03/21 00:03:48;;;;;;;15.48;8.90;;;4.10;40.20;;;;;;5052874;28;20474;-76
2022/03/21 00:06:14;;;;;;;14.20;8.23;;;4.10;40.00;;;;;;5053755;28;20045;-76
2022/03/21 00:08:40;;;;;;;13.90;8.88;;;4.00;40.20;;;;;;5051922;28;20029;-76
2022/03/21 00:11:06;;;;;;;12.25;8.05;;;4.00;40.20;;;;;;5053381;28;20029;-75
2022/03/21 00:13:33;;;;;;;19.40;9.05;;;3.90;39.90;;;;;;5053638;28;20031;-76
2022/03/21 00:15:59;;;;;;;12.73;8.27;;;3.90;40.00;;;;;;5052910;28;20045;-75
2022/03/21 00:18:25;;;;;;;11.90;7.80;;;3.90;39.90;;;;;;5053484;28;20036;-76
2022/03/21 00:20:53;;;;;;;11.90;7.80;;;3.90;40.00;;;;;;5052889;28;20028;-75
2022/03/21 00:23:20;;;;;;;14.23;7.43;;;3.90;39.80;;;;;;5053404;28;20029;-76
2022/03/21 00:25:46;;;;;;;13.13;7.90;;;3.90;40.00;;;;;;5052788;28;20025;-76
2022/03/21 00:28:12;;;;;;;12.45;7.85;;;3.90;39.90;;;;;;5053766;28;20036;-76
2022/03/21 00:30:39;;;;;;;12.25;7.53;;;3.90;40.00;;;;;;5053106;28;20132;-77
2022/03/21 00:33:06;;;;;;;13.48;7.70;;;3.90;39.80;;;;;;5053507;28;20477;-76
2022/03/21 00:35:32;;;;;;;11.43;7.32;;;3.90;39.80;;;;;;5053217;28;20068;-76
2022/03/21 00:37:58;;;;;;;12.82;7.40;;;3.90;39.90;;;;;;5052642;28;20032;-76
2022/03/21 00:40:27;;;;;;;12.85;8.27;;;3.90;39.80;;;;;;5053082;28;20032;-75
2022/03/21 00:42:53;;;;;;;11.60;7.50;;;3.80;39.60;;;;;;5052192;28;20524;-76
2022/03/21 00:45:21;;;;;;;11.38;7.57;;;3.80;39.70;;;;;;5051688;28;20036;-76
2022/03/21 00:47:49;;;;;;;10.93;7.30;;;3.90;39.80;;;;;;5052405;28;20029;-76
2022/03/21 00:50:16;;;;;;;14.15;7.38;;;3.90;39.70;;;;;;5052837;28;20025;-75
2022/03/21 00:52:51;;;;;;;11.90;6.88;;;4.00;39.60;;;;;;5052606;28;20025;-79
2022/03/21 00:55:18;;;;;;;11.23;7.03;;;4.00;39.50;;;;;;5052422;28;20417;-76
2022/03/21 00:57:45;;;;;;;11.15;6.88;;;4.00;39.50;;;;;;5052100;28;20032;-76
2022/03/21 01:00:20;;;;;;;15.68;7.13;;;4.00;39.40;;;;;;5052606;28;20021;-76
2022/03/21 01:02:46;;;;;;;11.35;6.75;;;4.00;39.40;;;;;;5052174;28;20037;-76
2022/03/21 01:05:12;;;;;;;10.90;6.80;;;4.00;39.40;;;;;;5052729;28;20056;-76
2022/03/21 01:07:39;;;;;;;15.27;6.22;;;3.90;39.60;;;;;;5052664;28;20029;-77
2022/03/21 01:10:06;;;;;;;9.52;7.13;;;4.00;39.80;;;;;;5052012;28;20103;-77
2022/03/21 01:12:32;;;;;;;9.40;6.63;;;4.00;39.60;;;;;;5052250;28;20533;-75
2022/03/21 01:14:58;;;;;;;9.75;6.65;;;4.00;39.60;;;;;;5050601;28;20117;-76
2022/03/21 01:17:24;;;;;;;9.57;6.70;;;4.00;39.70;;;;;;5052699;28;20068;-75
2022/03/21 01:19:49;;;;;;;10.90;6.40;;;4.00;39.60;;;;;;5051927;28;20466;-76
2022/03/21 01:22:15;;;;;;;12.60;7.18;;;4.00;39.50;;;;;;5051505;28;20029;-76
2022/03/21 01:24:41;;;;;;;9.38;6.22;;;4.00;39.50;;;;;;5052310;28;20028;-76
2022/03/21 01:27:08;;;;;;;10.38;5.75;;;4.00;39.40;;;;;;5051612;28;20028;-76
2022/03/21 01:29:33;;;;;;;9.65;5.78;;;4.00;39.30;;;;;;5052372;28;20103;-76
2022/03/21 01:31:59;;;;;;;8.60;5.90;;;4.10;39.20;;;;;;5051763;28;20033;-76
2022/03/21 01:34:25;;;;;;;10.48;6.30;;;4.10;39.10;;;;;;5052319;28;20036;-76
2022/03/21 01:37:09;;;;;;;8.30;5.63;;;4.20;39.00;;;;;;5051259;28;20032;-75
2022/03/21 01:39:35;;;;;;;7.55;5.78;;;4.20;39.10;;;;;;5051872;28;20214;-76
2022/03/21 01:42:01;;;;;;;10.30;5.97;;;4.20;39.10;;;;;;5051074;28;20084;-76
2022/03/21 01:44:27;;;;;;;7.90;5.80;;;4.20;39.00;;;;;;5052412;28;20029;-76
2022/03/21 01:46:52;;;;;;;7.78;5.88;;;4.20;39.20;;;;;;5051260;28;20036;-76
2022/03/21 01:49:18;;;;;;;11.48;5.80;;;4.30;39.00;;;;;;5051996;28;20037;-76
2022/03/21 01:51:44;;;;;;;9.55;5.82;;;4.20;39.10;;;;;;5051854;28;20032;-75
2022/03/21 01:56:56;;;;;;;8.85;5.75;;;4.10;39.50;;;;;;5051462;28;20453;-76
2022/03/21 01:59:22;;;;;;;11.00;6.43;;;4.10;39.70;;;;;;5052305;28;20076;-76
2022/03/21 02:01:49;;;;;;;11.45;5.90;;;4.00;39.80;;;;;;5052182;28;20056;-76
2022/03/21 02:04:15;;;;;;;11.05;6.18;;;4.00;40.00;;;;;;5054561;28;20029;-76
2022/03/21 02:06:44;;;;;;;9.25;6.32;;;4.00;40.60;;;;;;5056033;28;20465;-76
2022/03/21 02:09:10;;;;;;;9.85;6.00;;;3.90;40.20;;;;;;5052056;28;20044;-76
2022/03/21 02:11:37;;;;;;;9.77;6.50;;;3.90;40.30;;;;;;5051737;28;20437;-77
2022/03/21 02:14:05;;;;;;;8.77;5.85;;;3.90;40.30;;;;;;5051139;28;20099;-76
2022/03/21 02:16:32;;;;;;;10.70;6.35;;;3.90;40.20;;;;;;5051639;28;20031;-76
2022/03/21 02:19:20;;;;;;;10.00;5.95;;;3.90;40.20;;;;;;5051206;28;20124;-76
2022/03/21 02:22:05;;;;;;;13.07;6.63;;;3.90;40.30;;;;;;5051758;28;20025;-76
2022/03/21 02:24:47;;;;;;;8.60;5.97;;;3.90;40.20;;;;;;5051675;28;20033;-76
2022/03/21 02:27:15;;;;;;;12.27;6.32;;;3.90;40.30;;;;;;5051072;28;20072;-76
2022/03/21 02:29:43;;;;;;;10.43;6.40;;;3.90;40.10;;;;;;5051280;28;20021;-75
2022/03/21 02:32:08;;;;;;;9.52;6.60;;;3.90;40.10;;;;;;5050827;28;21058;-75
2022/03/21 02:34:57;;;;;;;10.07;6.28;;;3.90;40.20;;;;;;5055484;28;20109;-75
2022/03/21 02:37:25;;;;;;;9.73;7.18;;;3.80;40.80;;;;;;5055417;28;20070;-74
2022/03/21 02:39:52;;;;;;;9.27;6.50;;;3.80;40.30;;;;;;5054727;28;20025;-77
2022/03/21 02:42:17;;;;;;;8.63;6.35;;;3.80;40.30;;;;;;5055693;28;20025;-75
2022/03/21 02:44:43;;;;;;;9.60;6.53;;;3.70;40.40;;;;;;5055204;28;20102;-75
2022/03/21 02:47:09;;;;;;;15.45;6.10;;;3.70;40.50;;;;;;5054580;28;20041;-75
2022/03/21 02:49:36;;;;;;;9.63;6.22;;;3.70;40.50;;;;;;5055218;28;20104;-76
2022/03/21 02:52:04;;;;;;;10.35;6.32;;;3.80;40.50;;;;;;5054591;28;20025;-75
2022/03/21 02:54:30;;;;;;;10.73;6.18;;;3.70;40.60;;;;;;5055196;28;20060;-76
2022/03/21 02:56:57;;;;;;;10.60;6.45;;;3.70;40.60;;;;;;5054236;28;20033;-75
2022/03/21 02:59:23;;;;;;;10.43;6.55;;;3.60;40.60;;;;;;5055053;28;20036;-75
2022/03/21 03:01:53;;;;;;;11.80;6.10;;;3.60;40.70;;;;;;5055336;28;20037;-76
2022/03/21 03:04:23;;;;;;;9.82;6.40;;;3.60;40.70;;;;;;5055145;28;20029;-76
2022/03/21 03:06:49;;;;;;;11.98;6.70;;;3.60;40.90;;;;;;5054785;28;20425;-75
2022/03/21 03:09:15;;;;;;;12.30;6.50;;;3.60;41.00;;;;;;5054197;28;20024;-76
2022/03/21 03:11:41;;;;;;;9.85;6.50;;;3.60;41.00;;;;;;5054799;28;20060;-76
2022/03/21 03:14:07;;;;;;;9.70;6.93;;;3.60;41.10;;;;;;5053944;28;20025;-77
2022/03/21 03:16:34;;;;;;;11.82;6.47;;;3.50;41.10;;;;;;5054719;28;20100;-76
2022/03/21 03:18:59;;;;;;;12.95;6.72;;;3.50;41.30;;;;;;5052677;28;20123;-75
2022/03/21 03:21:28;;;;;;;11.32;6.93;;;3.40;41.40;;;;;;5054602;28;20431;-76
2022/03/21 03:23:55;;;;;;;9.80;7.03;;;3.30;42.20;;;;;;5053937;28;20450;-76
2022/03/21 03:26:20;;;;;;;12.43;6.38;;;3.30;41.90;;;;;;5054504;28;20055;-75
2022/03/21 03:28:46;;;;;;;10.43;6.95;;;3.20;42.20;;;;;;5054399;28;20462;-75
2022/03/21 03:31:16;;;;;;;8.55;6.43;;;3.10;42.60;;;;;;5053512;28;20106;-76
2022/03/21 03:33:45;;;;;;;14.57;6.88;;;3.10;42.80;;;;;;5054188;28;20021;-75
2022/03/21 03:36:11;;;;;;;11.00;6.53;;;3.00;42.80;;;;;;5053690;28;20025;-75
2022/03/21 03:38:37;;;;;;;10.60;7.00;;;2.90;42.90;;;;;;5054367;28;20063;-75
2022/03/21 03:41:03;;;;;;;9.40;6.63;;;2.90;43.20;;;;;;5052338;28;20104;-75
2022/03/21 03:43:29;;;;;;;11.43;6.25;;;2.80;43.30;;;;;;5054280;28;20025;-75
2022/03/21 03:45:57;;;;;;;10.75;7.05;;;2.80;43.40;;;;;;5052883;28;20033;-77
2022/03/21 03:48:23;;;;;;;10.65;6.47;;;2.70;43.40;;;;;;5053796;28;20029;-76
2022/03/21 03:50:48;;;;;;;12.82;7.03;;;2.70;43.90;;;;;;5053979;28;20029;-76
2022/03/21 03:53:15;;;;;;;13.13;6.95;;;2.60;43.90;;;;;;5053235;28;20593;-74
2022/03/21 03:55:42;;;;;;;13.25;7.15;;;2.60;44.10;;;;;;5053882;28;20045;-75
2022/03/21 03:58:08;;;;;;;11.25;7.18;;;2.50;44.30;;;;;;5053223;28;20104;-76
2022/03/21 04:00:34;;;;;;;12.27;7.85;;;2.50;44.60;;;;;;5053848;28;20052;-75
2022/03/21 04:05:44;;;;;;;11.52;7.78;;;2.40;45.20;;;;;;5053552;28;20036;-75
2022/03/21 04:08:10;;;;;;;11.98;7.95;;;2.30;45.40;;;;;;5053110;28;20036;-75
2022/03/21 04:10:36;;;;;;;11.02;7.68;;;2.20;45.70;;;;;;5053580;28;20029;-75
2022/03/21 04:13:02;;;;;;;12.25;7.90;;;2.20;45.90;;;;;;5052987;28;20492;-76
2022/03/21 04:15:28;;;;;;;15.05;7.93;;;2.10;46.40;;;;;;5053183;28;20020;-76
2022/03/21 04:18:01;;;;;;;14.60;8.10;;;2.10;47.00;;;;;;5053490;28;20029;-76
2022/03/21 04:20:31;;;;;;;15.65;8.88;;;2.00;47.00;;;;;;5053695;28;20466;-76
2022/03/21 04:23:00;;;;;;;14.63;8.82;;;2.00;47.50;;;;;;5053414;28;20397;-76
2022/03/21 04:25:26;;;;;;;14.98;8.60;;;2.00;47.80;;;;;;5053358;28;20022;-75
2022/03/21 04:27:52;;;;;;;13.35;9.38;;;1.90;48.20;;;;;;5053082;28;20128;-75
2022/03/21 04:30:18;;;;;;;13.75;9.20;;;1.80;48.50;;;;;;5052661;28;20072;-75
2022/03/21 04:32:44;;;;;;;16.73;10.15;;;1.80;48.90;;;;;;5052918;28;20021;-75
2022/03/21 04:35:14;;;;;;;16.27;9.60;;;1.70;49.10;;;;;;5052633;28;20032;-76
2022/03/21 04:37:40;;;;;;;15.18;9.52;;;1.70;49.50;;;;;;5052692;28;20041;-76
2022/03/21 04:40:07;;;;;;;16.05;9.68;;;1.60;49.80;;;;;;5052505;28;20082;-76
2022/03/21 04:42:34;;;;;;;14.43;10.02;;;1.60;49.80;;;;;;5052913;28;20025;-76
2022/03/21 04:45:00;;;;;;;17.55;10.27;;;1.60;49.70;;;;;;5051937;28;20029;-74
2022/03/21 04:47:26;;;;;;;15.38;10.27;;;1.50;49.80;;;;;;5052888;28;20025;-76
2022/03/21 04:49:51;;;;;;;19.30;10.73;;;1.50;49.90;;;;;;5051537;28;20025;-76
2022/03/21 04:52:17;;;;;;;20.75;10.32;;;1.50;49.80;;;;;;5051087;28;20029;-75
2022/03/21 04:54:42;;;;;;;17.38;10.45;;;1.50;49.90;;;;;;5051127;28;20123;-76
2022/03/21 04:57:10;;;;;;;19.80;10.40;;;1.50;49.90;;;;;;5051143;28;20033;-76
2022/03/21 04:59:37;;;;;;;16.25;10.68;;;1.50;49.70;;;;;;5052543;28;20032;-76
2022/03/21 05:02:03;;;;;;;22.08;10.57;;;1.50;49.70;;;;;;5051963;28;20045;-75
2022/03/21 05:04:29;;;;;;;16.92;10.45;;;1.50;49.50;;;;;;5051087;28;20021;-75
2022/03/21 05:06:55;;;;;;;19.45;11.07;;;1.60;49.40;;;;;;5052507;28;20332;-75
2022/03/21 05:09:21;;;;;;;17.17;10.82;;;1.50;49.40;;;;;;5051710;28;20043;-75
2022/03/21 05:11:46;;;;;;;15.25;10.07;;;1.50;49.30;;;;;;5052414;28;20096;-76
2022/03/21 05:16:56;;;;;;;20.23;10.65;;;1.60;49.40;;;;;;5052244;28;20111;-75
2022/03/21 05:19:22;;;;;;;16.80;10.07;;;1.50;49.50;;;;;;5051711;28;20537;-76
2022/03/21 05:21:47;;;;;;;17.60;10.48;;;1.60;49.40;;;;;;5051940;28;20029;-75
2022/03/21 05:32:26;;;;;;;19.95;10.52;;;1.60;49.20;;;;;;5051350;28;20117;-76
2022/03/21 05:37:35;;;;;;;20.05;10.85;;;1.70;48.80;;;;;;5051711;28;20039;-75
2022/03/21 05:40:46;;;;;;;17.70;10.55;;;1.80;48.80;;;;;;5051747;28;20382;-76
2022/03/21 05:42:47;;;;;;;18.35;11.35;;;1.80;48.70;;;;;;5051380;28;20169;-76
2022/03/21 05:45:19;;;;;;;20.08;11.48;;;1.90;48.60;;;;;;5051435;28;20124;-76
2022/03/21 05:50:48;;;;;;;23.95;12.75;;;2.00;48.40;;;;;;5051576;28;20027;-76
2022/03/21 05:53:14;;;;;;;20.25;11.38;;;2.10;48.00;;;;;;5050950;28;20025;-75
2022/03/21 05:55:39;;;;;;;20.45;10.88;;;2.20;47.80;;;;;;5051872;28;20140;-74
2022/03/21 05:58:05;;;;;;;23.13;11.80;;;2.20;47.90;;;;;;5050073;28;20392;-79
2022/03/21 06:00:31;;;;;;;20.83;12.05;;;2.30;47.70;;;;;;5052060;28;20029;-76
2022/03/21 06:02:56;;;;;;;19.80;12.48;;;2.30;47.70;;;;;;5057070;28;20104;-73
2022/03/21 06:05:23;;;;;;;22.38;12.13;;;2.30;47.70;;;;;;5071199;28;20055;-74
2022/03/21 06:07:51;;;;;;;17.15;10.98;;;2.30;47.60;;;;;;5071438;28;20381;-76
2022/03/21 06:10:17;;;;;;;23.67;12.00;;;2.40;47.60;;;;;;5052573;28;20066;-74
2022/03/21 06:12:43;;;;;;;21.83;12.13;;;2.40;47.50;;;;;;5052761;28;20017;-75
2022/03/21 06:15:10;;;;;;;21.75;12.40;;;2.40;47.60;;;;;;5053597;28;20032;-76
2022/03/21 06:17:39;;;;;;;25.02;12.10;;;2.50;47.50;;;;;;5052437;28;20037;-75
2022/03/21 06:20:13;;;;;;;18.85;11.48;;;2.50;47.50;;;;;;5051643;28;20071;-75
2022/03/21 06:22:39;;;;;;;21.08;11.75;;;2.60;47.30;;;;;;5051837;28;20035;-75
2022/03/21 06:25:06;;;;;;;18.15;11.35;;;2.60;47.20;;;;;;5051471;28;20025;-75
2022/03/21 06:27:34;;;;;;;21.77;12.25;;;2.70;47.20;;;;;;5051290;28;20029;-76
2022/03/21 06:30:01;;;;;;;21.10;11.63;;;2.70;47.00;;;;;;5051581;28;20032;-75
2022/03/21 06:32:26;;;;;;;19.42;11.93;;;2.80;47.10;;;;;;5050737;28;20031;-75
2022/03/21 06:34:53;;;;;;;15.13;11.60;;;2.90;46.80;;;;;;5033444;28;20462;-75
2022/03/21 06:37:19;;;;;;;18.60;11.60;;;2.90;46.70;;;;;;5050864;28;20112;-75
2022/03/21 06:39:45;;;;;;;17.85;11.25;;;3.00;46.60;;;;;;5057706;28;20032;-76
2022/03/21 06:42:13;;;;;;;18.38;10.88;;;3.10;46.20;;;;;;5070830;28;20540;-76
2022/03/21 06:44:40;;;;;;;21.00;12.52;;;3.10;46.00;;;;;;5071134;28;20033;-75
2022/03/21 06:47:06;;;;;;;17.63;11.45;;;3.20;46.00;;;;;;5071080;28;20086;-76
2022/03/21 06:49:32;;;;;;;22.88;12.02;;;3.20;45.80;;;;;;5070704;28;20028;-75
2022/03/21 06:51:58;;;;;;;18.60;10.93;;;3.30;45.80;;;;;;5071114;28;20107;-76
2022/03/21 06:54:23;;;;;;;17.40;10.68;;;3.40;45.50;;;;;;5070392;28;20036;-75
2022/03/21 06:56:49;;;;;;;16.60;11.57;;;3.40;44.90;;;;;;5071319;28;20032;-75
2022/03/21 06:59:15;;;;;;;15.05;10.15;;;3.50;44.90;;;;;;5070462;28;20040;-74
2022/03/21 07:01:40;;;;;;;19.08;10.30;;;3.60;44.90;;;;;;5071218;28;20031;-76
2022/03/21 07:04:06;;;;;;;20.08;10.77;;;3.70;44.90;;;;;;5069955;28;20020;-75
2022/03/21 07:06:31;;;;;;;21.00;11.27;;;3.90;44.50;;;;;;5070601;28;20039;-75
2022/03/21 07:08:57;;;;;;;13.95;9.70;;;4.00;44.30;;;;;;5071565;28;20039;-76
2022/03/21 07:11:23;;;;;;;16.90;10.65;;;4.10;44.00;;;;;;5070974;28;20028;-75
2022/03/21 07:13:49;;;;;;;20.35;10.75;;;4.20;43.60;;;;;;5071469;28;20452;-76
2022/03/21 07:16:16;;;;;;;19.70;10.30;;;4.40;43.10;;;;;;5070450;28;20466;-76
2022/03/21 07:18:45;;;;;;;16.85;10.05;;;4.50;42.60;;;;;;5071208;28;20032;-74
2022/03/21 07:21:13;;;;;;;16.23;9.90;;;4.80;42.40;;;;;;5074334;28;20028;-76
2022/03/21 07:23:39;;;;;;;18.63;10.13;;;5.20;41.90;;;;;;5075063;28;20059;-76
2022/03/21 07:26:04;;;;;;;15.77;10.07;;;5.50;41.10;;;;;;5075498;28;20052;-76
2022/03/21 07:28:30;;;;;;;16.05;9.68;;;5.90;40.60;;;;;;5072659;28;20028;-76
2022/03/21 07:30:57;;;;;;;14.48;10.00;;;6.50;39.20;;;;;;5074845;28;20033;-76
2022/03/21 07:33:24;;;;;;;14.77;10.02;;;6.70;38.60;;;;;;5073948;28;20032;-77
2022/03/21 07:35:50;;;;;;;16.63;9.80;;;7.00;37.80;;;;;;5074471;28;20548;-77
2022/03/21 07:38:15;;;;;;;12.93;8.75;;;7.50;37.30;;;;;;5073994;28;20064;-78
2022/03/21 07:40:41;;;;;;;14.05;9.90;;;8.20;35.30;;;;;;5074399;28;20484;-78
2022/03/21 07:43:07;;;;;;;15.70;9.88;;;8.90;34.70;;;;;;5073402;28;20044;-77
2022/03/21 07:48:17;;;;;;;11.82;9.23;;;12.90;30.20;;;;;;5053563;28;20032;-77
2022/03/21 07:50:43;;;;;;;12.18;9.15;;;15.80;27.10;;;;;;5054091;28;20029;-76
2022/03/21 07:53:09;;;;;;;10.63;8.43;;;17.30;26.20;;;;;;5054063;28;20131;-76
2022/03/21 07:55:35;;;;;;;12.90;9.35;;;18.80;25.10;;;;;;5053168;28;20517;-77
2022/03/21 07:58:01;;;;;;;13.13;9.13;;;19.50;23.50;;;;;;5054196;28;20033;-77
2022/03/21 08:00:30;;;;;;;18.05;9.18;;;19.60;23.60;;;;;;5053447;28;20021;-77
2022/03/21 08:02:58;;;;;;;12.90;8.13;;;20.20;22.50;;;;;;5054111;28;20024;-78
2022/03/21 08:05:42;;;;;;;14.82;8.73;;;20.20;22.50;;;;;;5053179;28;20501;-77
2022/03/21 08:08:08;;;;;;;12.15;8.50;;;20.20;22.80;;;;;;5053534;28;20462;-78
2022/03/21 08:10:34;;;;;;;12.10;8.75;;;20.80;22.10;;;;;;5053165;28;20025;-77
2022/03/21 08:13:00;;;;;;;13.48;8.60;;;21.00;21.90;;;;;;5053619;28;20378;-78
2022/03/21 08:15:29;;;;;;;13.77;8.60;;;20.50;21.60;;;;;;5052922;28;20038;-78
2022/03/21 08:17:56;;;;;;;12.90;8.18;;;20.80;21.90;;;;;;5052442;28;20091;-77
2022/03/21 08:20:24;;;;;;;10.82;8.30;;;20.80;22.30;;;;;;5053129;28;20036;-77
2022/03/21 08:22:50;;;;;;;11.35;6.97;;;20.40;21.70;;;;;;5053723;28;20107;-77
2022/03/21 08:25:17;;;;;;;11.27;8.35;;;21.20;22.10;;;;;;5052978;28;20060;-78
2022/03/21 08:27:47;;;;;;;9.52;7.88;;;21.00;21.20;;;;;;5053571;28;20035;-77
2022/03/21 08:30:15;;;;;;;10.35;7.60;;;20.90;20.90;;;;;;5053713;28;20028;-76
2022/03/21 08:32:46;;;;;;;8.52;6.30;;;21.00;21.10;;;;;;5053233;28;20032;-77
2022/03/21 08:35:12;;;;;;;9.37;6.83;;;20.90;20.40;;;;;;5053518;28;20013;-78
2022/03/21 08:37:38;;;;;;;9.23;7.13;;;20.80;20.80;;;;;;5051447;28;20035;-77
2022/03/21 08:40:06;;;;;;;11.00;7.25;;;19.90;21.10;;;;;;5053437;28;20116;-77
2022/03/21 08:42:32;;;;;;;9.23;6.70;;;19.60;21.00;;;;;;5052544;28;20366;-78
2022/03/21 08:44:58;;;;;;;9.55;6.82;;;17.90;21.60;;;;;;5053165;28;20055;-77
2022/03/21 08:47:24;;;;;;;8.90;6.88;;;16.50;22.50;;;;;;5052284;28;20454;-77
2022/03/21 08:49:50;;;;;;;7.93;6.28;;;15.50;23.40;;;;;;5053417;28;20025;-78
2022/03/21 08:52:17;;;;;;;11.80;6.30;;;14.40;23.90;;;;;;5052693;28;20429;-76
2022/03/21 08:54:42;;;;;;;10.57;6.32;;;13.80;24.70;;;;;;5052563;28;20510;-76
2022/03/21 08:57:10;;;;;;;16.15;7.00;;;13.10;25.00;;;;;;5052781;28;20121;-77
2022/03/21 08:59:36;;;;;;;9.35;6.93;;;12.80;25.90;;;;;;5052078;28;20061;-76
2022/03/21 09:02:02;;;;;;;10.25;6.53;;;12.60;26.10;;;;;;5052874;28;20425;-77
2022/03/21 09:04:28;;;;;;;10.38;6.60;;;12.30;26.10;;;;;;5052216;28;20048;-77
2022/03/21 09:06:54;;;;;;;12.23;6.60;;;12.00;26.00;;;;;;5053369;28;20029;-78
2022/03/21 09:09:20;;;;;;;9.80;6.55;;;11.90;26.20;;;;;;5052360;28;20025;-79
2022/03/21 09:11:47;;;;;;;9.15;6.50;;;11.90;26.40;;;;;;5052631;28;20025;-77
2022/03/21 09:14:13;;;;;;;10.25;6.82;;;11.80;26.40;;;;;;5052286;28;20083;-77
2022/03/21 09:16:42;;;;;;;8.82;6.50;;;11.80;26.50;;;;;;5052051;28;20037;-78
2022/03/21 09:19:08;;;;;;;9.07;6.43;;;11.60;26.20;;;;;;5052602;28;20021;-78
2022/03/21 09:21:33;;;;;;;9.48;6.78;;;11.50;27.00;;;;;;5051651;28;20432;-76
2022/03/21 09:23:59;;;;;;;10.90;6.57;;;11.50;26.20;;;;;;5052074;28;20418;-77
2022/03/21 09:26:25;;;;;;;8.93;6.22;;;11.40;26.10;;;;;;5051455;28;20036;-77
2022/03/21 09:28:59;;;;;;;8.88;6.75;;;11.30;26.30;;;;;;5052287;28;20105;-77
2022/03/21 09:31:26;;;;;;;11.40;6.63;;;11.30;26.80;;;;;;5051564;28;20044;-77
2022/03/21 09:33:52;;;;;;;9.27;6.13;;;11.40;26.60;;;;;;5052173;28;20029;-77
2022/03/21 09:36:17;;;;;;;13.02;6.38;;;11.20;26.10;;;;;;5052113;28;20036;-78
2022/03/21 09:38:43;;;;;;;9.10;7.10;;;11.20;26.50;;;;;;5050264;28;20035;-78
2022/03/21 09:41:13;;;;;;;10.23;7.03;;;11.30;26.50;;;;;;5052427;28;20032;-75
2022/03/21 09:43:40;;;;;;;10.77;6.63;;;11.40;26.50;;;;;;5050659;28;20470;-77
2022/03/21 09:46:07;;;;;;;10.02;6.45;;;11.40;26.50;;;;;;5052246;28;20116;-77
2022/03/21 09:48:34;;;;;;;13.48;7.20;;;11.50;26.40;;;;;;5051581;28;20028;-77
2022/03/21 09:51:03;;;;;;;11.23;7.28;;;11.50;26.30;;;;;;5050497;28;20430;-78
2022/03/21 09:53:29;;;;;;;9.88;6.65;;;11.50;26.60;;;;;;5051215;28;20044;-77
2022/03/21 09:55:55;;;;;;;7.15;6.25;;;11.40;26.40;;;;;;5051480;28;20048;-77
2022/03/21 09:58:22;;;;;;;11.07;6.47;;;11.50;26.40;;;;;;5052192;28;20088;-76
2022/03/21 10:00:51;;;;;;;8.60;6.53;;;11.40;26.20;;;;;;5051930;28;20041;-77
2022/03/21 10:03:17;;;;;;;11.20;7.10;;;11.30;26.30;;;;;;5051811;28;20075;-77
2022/03/21 10:05:46;;;;;;;13.18;6.93;;;11.40;26.30;;;;;;5050143;28;20231;-78
2022/03/21 10:08:28;;;;;;;8.40;6.22;;;11.30;26.50;;;;;;5051903;28;20029;-76
2022/03/21 10:11:02;;;;;;;7.40;6.20;;;11.30;27.10;;;;;;5051484;28;20494;-78
2022/03/21 10:13:35;;;;;;;9.90;5.70;;;11.40;26.70;;;;;;5051191;28;20025;-77
2022/03/21 10:16:14;;;;;;;13.05;7.00;;;11.50;26.30;;;;;;5051630;28;20025;-78
2022/03/21 10:18:52;;;;;;;11.02;6.60;;;11.50;26.10;;;;;;5050733;28;20108;-78
2022/03/21 10:21:18;;;;;;;9.32;6.32;;;11.50;26.10;;;;;;5051536;28;20048;-77
2022/03/21 10:23:44;;;;;;;10.75;6.88;;;11.60;25.80;;;;;;5051589;28;20319;-77
2022/03/21 10:26:30;;;;;;;7.22;5.70;;;11.70;26.00;;;;;;5051633;28;20067;-76
2022/03/21 10:28:58;;;;;;;9.55;6.18;;;11.70;25.50;;;;;;5051666;28;20033;-77
2022/03/21 10:31:42;;;;;;;8.20;5.97;;;11.80;25.30;;;;;;5051427;28;20029;-77
2022/03/21 10:34:12;;;;;;;8.48;5.90;;;11.70;25.00;;;;;;5051360;28;20470;-78
2022/03/21 10:36:57;;;;;;;8.80;6.20;;;11.70;24.90;;;;;;5050901;28;20040;-78
2022/03/21 10:39:23;;;;;;;11.82;6.63;;;11.70;25.30;;;;;;5051636;28;20393;-78
2022/03/21 10:41:59;;;;;;;10.32;6.88;;;11.70;25.70;;;;;;5051146;28;20399;-77
2022/03/21 10:44:26;;;;;;;8.93;6.43;;;11.70;25.40;;;;;;5051677;28;20032;-78
2022/03/21 10:46:58;;;;;;;9.50;6.38;;;11.70;25.50;;;;;;5051393;28;20095;-77
2022/03/21 10:49:40;;;;;;;9.27;6.40;;;11.80;25.90;;;;;;5051543;28;20033;-78
2022/03/21 10:52:07;;;;;;;9.15;6.13;;;11.90;25.30;;;;;;5051829;28;20036;-77
2022/03/21 10:54:48;;;;;;;12.70;6.63;;;11.90;24.50;;;;;;5051459;28;20060;-77
2022/03/21 10:57:27;;;;;;;8.85;5.07;;;11.90;25.20;;;;;;5054906;28;20490;-77
2022/03/21 11:00:12;;;;;;;9.00;6.60;;;11.90;25.10;;;;;;5055072;28;20028;-77
2022/03/21 11:02:47;;;;;;;7.47;5.63;;;11.90;25.10;;;;;;5054418;28;20154;-78
2022/03/21 11:05:12;;;;;;;8.13;6.13;;;11.90;24.60;;;;;;5055133;28;20390;-78
2022/03/21 11:07:57;;;;;;;9.93;5.78;;;11.90;25.20;;;;;;5054371;28;20035;-77
2022/03/21 11:10:24;;;;;;;9.82;5.85;;;12.00;24.90;;;;;;5054862;28;20059;-77
2022/03/21 11:12:50;;;;;;;8.35;5.90;;;12.00;24.60;;;;;;5054645;28;20052;-76
2022/03/21 11:15:16;;;;;;;7.80;5.55;;;12.00;24.80;;;;;;5054984;28;20028;-78
2022/03/21 11:17:43;;;;;;;7.22;5.40;;;12.00;24.70;;;;;;5054462;28;20033;-77
2022/03/21 11:20:10;;;;;;;7.03;5.55;;;12.00;24.50;;;;;;5054831;28;20500;-77
2022/03/21 11:22:38;;;;;;;7.15;5.68;;;12.00;24.10;;;;;;5054155;28;20025;-77
2022/03/21 11:25:13;;;;;;;7.90;5.63;;;12.00;23.80;;;;;;5054488;28;20529;-75
2022/03/21 11:27:44;;;;;;;8.98;5.30;;;12.00;23.90;;;;;;5054114;28;20040;-77
2022/03/21 11:30:24;;;;;;;6.75;5.35;;;12.00;24.10;;;;;;5054184;28;20516;-78
2022/03/21 11:33:15;;;;;;;6.97;5.53;;;11.90;24.30;;;;;;5053833;28;20071;-77
2022/03/21 11:35:43;;;;;;;;;;;11.90;23.80;;;;;;5054266;28;20025;-77
2022/03/21 11:38:30;;;;;;;13.75;6.00;;;11.80;24.10;;;;;;5053581;28;19908;-76
2022/03/21 11:41:18;;;;;;;7.60;5.53;;;11.90;24.70;;;;;;5054390;28;20017;-77
2022/03/21 11:43:46;;;;;;;6.65;5.25;;;12.00;24.60;;;;;;5052309;28;20492;-76
2022/03/21 11:46:30;;;;;;;6.40;4.97;;;12.00;24.50;;;;;;5054400;28;20029;-77
2022/03/21 11:49:04;;;;;;;11.65;5.90;;;12.10;24.80;;;;;;5054454;28;20029;-79
2022/03/21 11:51:38;;;;;;;7.75;5.47;;;12.20;24.50;;;;;;5053939;28;20436;-77
2022/03/21 11:54:07;;;;;;;6.47;5.18;;;12.20;23.90;;;;;;5054252;28;20116;-77
2022/03/21 11:56:44;;;;;;;10.75;5.60;;;12.30;24.10;;;;;;5052940;28;20100;-78
2022/03/21 11:59:32;;;;;;;7.65;5.53;;;12.20;24.00;;;;;;5054020;28;20025;-77
2022/03/21 12:02:01;;;;;;;13.18;5.30;;;12.30;24.10;;;;;;5053423;28;20124;-77
2022/03/21 12:04:29;;;;;;;8.98;5.47;;;12.20;23.80;;;;;;5054015;28;20036;-76
2022/03/21 12:07:17;;;;;;;8.30;5.78;;;12.20;23.80;;;;;;5052738;28;20117;-77
2022/03/21 12:09:47;;;;;;;8.10;5.45;;;12.20;24.00;;;;;;5052841;28;20037;-77
2022/03/21 12:12:17;;;;;;;6.93;5.20;;;12.20;24.10;;;;;;5053579;28;20021;-76
2022/03/21 12:14:45;;;;;;;6.78;5.45;;;12.20;24.10;;;;;;5053010;28;20025;-76
2022/03/21 12:17:10;;;;;;;10.85;5.40;;;12.20;24.00;;;;;;5053647;28;20437;-77
2022/03/21 12:20:02;;;;;;;7.63;5.40;;;12.30;24.10;;;;;;5052992;28;20052;-78
2022/03/21 12:22:32;;;;;;;7.68;5.85;;;12.30;24.30;;;;;;5050773;28;20039;-77
2022/03/21 12:25:11;;;;;;;8.23;5.63;;;12.30;23.90;;;;;;5053391;28;20124;-77
2022/03/21 12:27:41;;;;;;;7.00;5.20;;;12.30;23.60;;;;;;5052816;28;20069;-79
2022/03/21 12:32:52;;;;;;;12.68;6.22;;;12.10;23.50;;;;;;5052832;28;20433;-77
2022/03/21 12:35:34;;;;;;;9.77;5.93;;;12.00;23.70;;;;;;5053446;28;20076;-77
2022/03/21 12:38:07;;;;;;;8.40;5.28;;;11.90;24.00;;;;;;5053077;28;20112;-77
2022/03/21 12:40:35;;;;;;;11.48;5.70;;;11.80;24.00;;;;;;5053396;28;20021;-75
2022/03/21 12:43:02;;;;;;;8.27;5.63;;;11.80;24.30;;;;;;5052018;28;20028;-77
2022/03/21 12:45:29;;;;;;;9.10;5.40;;;11.70;24.20;;;;;;5053263;28;20028;-77
2022/03/21 12:48:03;;;;;;;8.23;5.38;;;11.70;24.60;;;;;;5052442;28;20037;-78
2022/03/21 12:50:29;;;;;;;6.90;5.07;;;11.60;23.90;;;;;;5052938;28;20033;-77
2022/03/21 12:52:57;;;;;;;7.95;5.55;;;11.60;24.10;;;;;;5052380;28;20028;-77
2022/03/21 12:55:24;;;;;;;7.78;5.30;;;11.60;24.20;;;;;;5052434;28;20045;-78
2022/03/21 12:58:00;;;;;;;6.18;5.00;;;11.60;24.20;;;;;;5052385;28;20048;-78
2022/03/21 13:00:27;;;;;;;7.30;5.15;;;11.50;24.00;;;;;;5052916;28;20044;-77
2022/03/21 13:03:02;;;;;;;15.32;5.50;;;11.40;23.90;;;;;;5052590;28;20075;-76
2022/03/21 13:11:03;;;;;;;8.00;5.40;;;11.30;24.30;;;;;;5051880;28;20293;-77
2022/03/21 13:13:42;;;;;;;6.72;5.07;;;11.30;24.10;;;;;;5052719;28;20029;-78
2022/03/21 13:16:10;;;;;;;6.60;5.10;;;11.30;24.10;;;;;;5052404;28;20535;-77
2022/03/21 13:18:39;;;;;;;9.45;5.43;;;11.20;24.40;;;;;;5051783;28;20025;-78
2022/03/21 13:21:06;;;;;;;8.60;5.22;;;11.20;24.10;;;;;;5052474;28;20029;-76
2022/03/21 13:23:34;;;;;;;11.75;5.07;;;11.20;24.30;;;;;;5052541;28;20060;-77
2022/03/21 13:26:15;;;;;;;8.68;5.45;;;11.20;24.40;;;;;;5051795;28;20381;-77